Time;durP1;ratioP1;P1;durP2;ratioP2;P2;SDS_P1;SDS_P2;PMS_P1;PMS_P2;Temp;Humidity;BMP_temperature;BMP_pressure;BME280_temperature;BME280_humidity;BME280_pressure;Samples;Min_cycle;Max_cycle;Signal;HPM_P1;HPM_P2
2021/03/19 00:00:09;;;;;;;;;;;;;;;-2.11;100.00;98927.47;1763190;81;20715;-74
2021/03/19 00:02:41;;;;;;;;;;;;;;;-2.09;100.00;98925.47;1782679;80;20144;-72
2021/03/19 00:05:13;;;;;;;;;;;;;;;-2.06;100.00;98921.66;1762973;81;20138;-72
2021/03/19 00:07:46;;;;;;;;;;;;;;;-2.05;100.00;98920.67;1782645;80;20160;-72
2021/03/19 00:10:18;;;;;;;;;;;;;;;-1.98;100.00;98921.05;1762984;81;21379;-72
2021/03/19 00:12:46;;;;;;;;;;;;;;;-1.97;100.00;98922.66;1782315;80;20215;-73
2021/03/19 00:15:17;;;;;;;;;;;;;;;-1.96;100.00;98924.30;1763039;81;20240;-72
2021/03/19 00:17:45;;;;;;;;;;;;;;;-1.91;100.00;98917.17;1782669;80;20510;-72
2021/03/19 00:20:14;;;;;;;;;;;;;;;-1.93;100.00;98919.17;1750292;81;20571;-73
2021/03/19 00:22:42;;;;;;;;;;;;;;;-1.92;100.00;98920.78;1762989;81;21827;-72
2021/03/19 00:25:10;;;;;;;;;;;;;;;-1.89;100.00;98919.59;1782563;80;20144;-73
2021/03/19 00:27:38;;;;;;;;;;;;;;;-1.88;100.00;98922.55;1762944;81;20161;-73
2021/03/19 00:30:08;;;;;;;;;;;;;;;-1.86;100.00;98922.67;1782663;80;20139;-72
2021/03/19 00:32:37;;;;;;;;;;;;;;;-1.83;100.00;98920.97;1750122;82;20186;-72
2021/03/19 00:35:06;;;;;;;;;;;;;;;-1.81;100.00;98918.97;1750106;82;21148;-72
2021/03/19 00:37:34;;;;;;;;;;;;;;;-1.83;100.00;98917.53;1762930;81;20307;-72
2021/03/19 00:40:05;;;;;;;;;;;;;;;-1.84;100.00;98925.91;1782574;80;20223;-73
2021/03/19 00:42:32;;;;;;;;;;;;;;;-1.87;100.00;98923.66;1763047;81;20864;-72
2021/03/19 00:45:02;;;;;;;;;;;;;;;-1.87;100.00;98927.60;1785086;80;20205;-72
2021/03/19 00:47:31;;;;;;;;;;;;;;;-1.85;100.00;98926.11;1757858;81;21197;-74
2021/03/19 00:50:02;;;;;;;;;;;;;;;-1.86;100.00;98917.89;1757856;81;20110;-72
2021/03/19 00:52:31;;;;;;;;;;;;;;;-1.88;100.00;98918.60;1764985;80;20541;-73
2021/03/19 00:55:00;;;;;;;;;;;;;;;-1.82;100.00;98923.09;1783173;80;20133;-73
2021/03/19 00:57:29;;;;;;;;;;;;;;;-1.82;100.00;98919.15;1762995;81;20141;-73
2021/03/19 00:59:57;;;;;;;;;;;;;;;-1.83;100.00;98915.71;1790657;80;21332;-73
2021/03/19 01:02:25;;;;;;;;;;;;;;;-1.81;100.00;98912.39;1762869;81;20249;-72
2021/03/19 01:04:55;;;;;;;;;;;;;;;-1.81;100.00;98909.77;1790688;80;20171;-73
2021/03/19 01:07:24;;;;;;;;;;;;;;;-1.80;100.00;98910.57;1757725;81;20220;-72
2021/03/19 01:09:52;;;;;;;;;;;;;;;-1.81;100.00;98912.39;1757861;81;20193;-72
2021/03/19 01:12:20;;;;;;;;;;;;;;;-1.80;100.00;98908.75;1757911;81;21212;-72
2021/03/19 01:14:48;;;;;;;;;;;;;;;-1.81;100.00;98911.59;1757767;81;20157;-73
2021/03/19 01:17:15;;;;;;;;;;;;;;;-1.85;100.00;98902.44;1757958;81;20480;-72
2021/03/19 01:19:44;;;;;;;;;;;;;;;-1.86;100.00;98904.26;1762990;81;20218;-72
2021/03/19 01:22:12;;;;;;;;;;;;;;;-1.88;100.00;98906.26;1790670;80;20127;-72
2021/03/19 01:24:40;;;;;;;;;;;;;;;-1.89;100.00;98911.70;1762914;81;21275;-72
2021/03/19 01:27:07;;;;;;;;;;;;;;;-1.95;100.00;98911.45;1790640;80;20219;-72
2021/03/19 01:29:36;;;;;;;;;;;;;;;-1.96;100.00;98915.58;1783203;80;20566;-72
2021/03/19 01:32:04;;;;;;;;;;;;;;;-1.98;100.00;98922.36;1763159;81;20622;-73
2021/03/19 01:34:32;;;;;;;;;;;;;;;-1.96;100.00;98916.89;1790911;80;20231;-73
2021/03/19 01:37:00;;;;;;;;;;;;;;;-1.95;100.00;98916.71;1763102;81;21379;-73
2021/03/19 01:39:28;;;;;;;;;;;;;;;-1.86;100.00;98913.94;1790773;80;20140;-73
2021/03/19 01:42:01;;;;;;;;;;;;;;;-1.86;100.00;98922.67;1757952;81;20127;-73
2021/03/19 01:44:57;;;;;;;;;;;;;;;-1.86;100.00;98917.41;1783235;80;20133;-73
2021/03/19 01:48:02;;;;;;;;;;;;;;;-1.85;100.00;98916.91;1758321;81;20268;-73
2021/03/19 01:51:07;;;;;;;;;;;;;;;-1.85;100.00;98920.84;1758271;81;21213;-72
2021/03/19 01:54:14;;;;;;;;;;;;;;;-1.84;100.00;98919.33;1758098;81;20174;-73
2021/03/19 01:57:18;;;;;;;;;;;;;;;-1.84;100.00;98924.59;1758343;81;20488;-73
2021/03/19 02:00:24;;;;;;;;;;;;;;;-1.82;100.00;98928.36;1758236;81;20508;-73
2021/03/19 02:03:29;;;;;;;;;;;;;;;-1.83;100.00;98928.06;1734884;82;20486;-72
2021/03/19 02:06:35;;;;;;;;;;;;;;;-1.81;100.00;98926.06;1758075;81;21371;-72
2021/03/19 02:09:40;;;;;;;;;;;;;;;-1.81;100.00;98932.63;1734860;82;20136;-73
2021/03/19 02:12:45;;;;;;;;;;;;;;;-1.78;100.00;98932.25;1758196;81;20233;-71
2021/03/19 02:15:49;;;;;;;;;;;;;;;-1.77;100.00;98936.50;1758174;81;20217;-72
2021/03/19 02:18:54;;;;;;;;;;;;;;;-1.77;100.00;98934.67;1734967;82;20263;-73
2021/03/19 02:21:59;;;;;;;;;;;;;;;-1.65;100.00;98934.98;1758150;81;21433;-71
2021/03/19 02:25:03;;;;;;;;;;;;;;;-1.68;100.00;98943.27;1758110;81;20162;-73
2021/03/19 02:28:09;;;;;;;;;;;;;;;-1.68;100.00;98947.20;1734886;82;20155;-72
2021/03/19 02:31:10;;;;;;;;;;;;;;;-1.68;100.00;98941.95;1758144;81;20232;-72
2021/03/19 02:33:50;;;;;;;;;;;;;;;-1.72;100.00;98943.31;1734874;82;20119;-73
2021/03/19 02:36:20;;;;;;;;;;;;;;;-1.73;100.00;98950.41;1733262;81;21308;-74
2021/03/19 02:38:49;;;;;;;;;;;;;;;-1.72;100.00;98952.52;1758199;81;20161;-71
2021/03/19 02:41:16;;;;;;;;;;;;;;;-1.79;100.00;98949.86;1734855;82;20115;-72
2021/03/19 02:43:44;;;;;;;;;;;;;;;-1.77;100.00;98954.41;1758239;81;20157;-72
2021/03/19 02:46:11;;;;;;;;;;;;;;;-1.72;100.00;98955.97;1755837;81;20420;-72
2021/03/19 02:48:39;;;;;;;;;;;;;;;-1.73;100.00;98956.98;1796118;80;22280;-72
2021/03/19 02:51:07;;;;;;;;;;;;;;;-1.72;100.00;98964.37;1796021;80;20129;-72
2021/03/19 02:53:36;;;;;;;;;;;;;;;-1.74;100.00;98960.62;1769396;80;20203;-72
2021/03/19 02:56:06;;;;;;;;;;;;;;;-1.73;100.00;98958.80;1796061;80;20149;-72
2021/03/19 02:58:34;;;;;;;;;;;;;;;-1.75;100.00;98960.30;1796122;80;20156;-72
2021/03/19 03:01:02;;;;;;;;;;;;;;;-1.75;100.00;98962.13;1796092;80;21812;-72
2021/03/19 03:03:31;;;;;;;;;;;;;;;-1.79;100.00;98962.17;1796029;80;20208;-71
2021/03/19 03:06:01;;;;;;;;;;;;;;;-1.80;100.00;98960.56;1796072;80;20212;-72
2021/03/19 03:08:29;;;;;;;;;;;;;;;-1.80;100.00;98957.92;1795964;80;20241;-72
2021/03/19 03:10:58;;;;;;;;;;;;;;;-1.78;100.00;98962.50;1796055;80;20161;-71
2021/03/19 03:13:26;;;;;;;;;;;;;;;-1.81;100.00;98961.57;1796014;80;21200;-71
2021/03/19 03:15:55;;;;;;;;;;;;;;;-1.86;100.00;98960.81;1796028;80;20522;-72
2021/03/19 03:18:24;;;;;;;;;;;;;;;-1.88;100.00;98964.64;1796086;80;20148;-71
2021/03/19 03:20:55;;;;;;;;;;;;;;;-1.89;100.00;98962.48;1795990;80;20129;-71
2021/03/19 03:23:24;;;;;;;;;;;;;;;-1.92;100.00;98963.38;1796149;80;20487;-73
2021/03/19 03:25:52;;;;;;;;;;;;;;;-1.95;100.00;98964.56;1796113;80;22285;-73
2021/03/19 03:28:21;;;;;;;;;;;;;;;-1.98;100.00;98956.55;1796019;80;20170;-73
2021/03/19 03:30:52;;;;;;;;;;;;;;;-2.02;100.00;98962.37;1796026;80;20157;-72
2021/03/19 03:33:20;;;;;;;;;;;;;;;-2.00;100.00;98961.69;1796150;80;20568;-73
2021/03/19 03:35:48;;;;;;;;;;;;;;;-2.04;100.00;98963.05;1795958;80;20108;-73
2021/03/19 03:38:19;;;;;;;;;;;;;;;-2.08;100.00;98967.88;1796134;80;22044;-72
2021/03/19 03:40:53;;;;;;;;;;;;;;;-2.11;100.00;98964.28;1795991;80;20153;-73
2021/03/19 03:43:21;;;;;;;;;;;;;;;-2.14;100.00;98962.03;1795954;80;20149;-73
2021/03/19 03:45:48;;;;;;;;;;;;;;;-2.17;100.00;98965.05;1793631;80;20491;-73
2021/03/19 03:48:18;;;;;;;;;;;;;;;-2.18;100.00;98965.55;1787447;80;20133;-73
2021/03/19 03:50:46;;;;;;;;;;;;;;;-2.19;100.00;98960.47;1787372;80;21198;-73
2021/03/19 03:53:14;;;;;;;;;;;;;;;-2.21;100.00;98967.22;1787295;80;20152;-73
2021/03/19 03:55:42;;;;;;;;;;;;;;;-2.21;100.00;98965.90;1787418;80;20133;-73
2021/03/19 03:58:10;;;;;;;;;;;;;;;-2.20;100.00;98968.86;1787302;80;20216;-73
2021/03/19 04:00:38;;;;;;;;;;;;;;;-2.23;100.00;98963.14;1787383;80;20145;-72
2021/03/19 04:03:06;;;;;;;;;;;;;;;-2.23;100.00;98963.14;1787400;80;21200;-73
2021/03/19 04:05:40;;;;;;;;;;;;;;;-2.24;100.00;98966.28;1787295;80;20197;-73
2021/03/19 04:08:09;;;;;;;;;;;;;;;-2.24;100.00;98968.09;1787272;80;20245;-73
2021/03/19 04:10:36;;;;;;;;;;;;;;;-2.26;100.00;98967.47;1787337;80;20169;-74
2021/03/19 04:13:05;;;;;;;;;;;;;;;-2.28;100.00;98967.67;1787368;80;20296;-73
2021/03/19 04:15:33;;;;;;;;;;;;;;;-2.29;100.00;98962.08;1787445;80;21368;-73
2021/03/19 04:18:03;;;;;;;;;;;;;;;-2.28;100.00;98968.14;1787277;80;20770;-73
2021/03/19 04:20:32;;;;;;;;;;;;;;;-2.30;100.00;98970.98;1787335;80;20134;-73
2021/03/19 04:23:00;;;;;;;;;;;;;;;-2.34;100.00;98965.77;1787420;80;20552;-72
2021/03/19 04:25:28;;;;;;;;;;;;;;;-2.35;100.00;98968.56;1787340;80;20287;-73
2021/03/19 04:27:58;;;;;;;;;;;;;;;-2.38;100.00;98965.33;1787335;80;21629;-73
2021/03/19 04:30:28;;;;;;;;;;;;;;;-2.37;100.00;98969.58;1787396;80;20153;-73
2021/03/19 04:32:56;;;;;;;;;;;;;;;-2.39;100.00;98972.88;1787290;80;20177;-73
2021/03/19 04:35:26;;;;;;;;;;;;;;;-2.38;100.00;98969.75;1787424;80;20228;-73
2021/03/19 04:37:58;;;;;;;;;;;;;;;-2.39;100.00;98968.94;1787349;80;20175;-72
2021/03/19 04:40:27;;;;;;;;;;;;;;;-2.39;100.00;98971.57;1787246;80;22778;-73
2021/03/19 04:42:55;;;;;;;;;;;;;;;-2.38;100.00;98967.96;1787253;80;20570;-72
2021/03/19 04:45:23;;;;;;;;;;;;;;;-2.34;100.00;98976.28;1787438;80;20144;-73
2021/03/19 04:47:53;;;;;;;;;;;;;;;-2.33;100.00;98970.01;1782783;80;20221;-73
2021/03/19 04:50:22;;;;;;;;;;;;;;;-2.30;100.00;98968.83;1762975;81;20220;-72
2021/03/19 04:52:51;;;;;;;;;;;;;;;-2.27;100.00;98973.73;1782654;80;21371;-73
2021/03/19 04:55:18;;;;;;;;;;;;;;;-2.26;100.00;98970.91;1762863;81;20141;-73
2021/03/19 04:57:47;;;;;;;;;;;;;;;-2.22;100.00;98978.74;1782592;80;20139;-73
2021/03/19 05:00:15;;;;;;;;;;;;;;;-2.21;100.00;98979.55;1750119;82;20221;-73
2021/03/19 05:02:45;;;;;;;;;;;;;;;-2.20;100.00;98976.75;1750156;82;20131;-73
2021/03/19 05:05:20;;;;;;;;;;;;;;;-2.19;100.00;98974.42;1750122;82;21213;-73
2021/03/19 05:07:49;;;;;;;;;;;;;;;-2.19;100.00;98975.73;1763020;81;20141;-73
2021/03/19 05:10:19;;;;;;;;;;;;;;;-2.16;100.00;98972.76;1782777;80;20156;-73
2021/03/19 05:12:48;;;;;;;;;;;;;;;-2.13;100.00;98975.52;1762662;81;20696;-73
2021/03/19 05:15:15;;;;;;;;;;;;;;;-2.10;100.00;98976.95;1782875;80;20282;-72
2021/03/19 05:17:44;;;;;;;;;;;;;;;-2.06;100.00;98980.83;1763089;81;22124;-73
2021/03/19 05:20:13;;;;;;;;;;;;;;;-2.04;100.00;98980.95;1782737;80;20144;-73
2021/03/19 05:22:41;;;;;;;;;;;;;;;-1.98;100.00;98984.67;1763102;81;20494;-73
2021/03/19 05:25:15;;;;;;;;;;;;;;;-1.93;100.00;98985.43;1756909;80;20235;-73
2021/03/19 05:27:43;;;;;;;;;;;;;;;-1.88;100.00;98987.80;1750338;82;20488;-73
2021/03/19 05:30:12;;;;;;;;;;;;;;;-1.81;100.00;98985.25;1763154;81;21217;-73
2021/03/19 05:32:39;;;;;;;;;;;;;;;-1.77;100.00;98985.17;1782712;80;20211;-73
2021/03/19 05:35:08;;;;;;;;;;;;;;;-1.74;100.00;98987.41;1763132;81;20165;-74
2021/03/19 05:37:36;;;;;;;;;;;;;;;-1.74;100.00;98989.57;1782766;80;20486;-72
2021/03/19 05:40:06;;;;;;;;;;;;;;;-1.65;100.00;98988.92;1763192;81;20284;-72
2021/03/19 05:42:35;;;;;;;;;;;;;;;-1.57;100.00;98988.81;1782835;80;21263;-72
2021/03/19 05:45:16;;;;;;;;;;;;;;;-1.59;100.00;99000.53;1750132;82;20111;-73
2021/03/19 05:47:44;;;;;;;;;;;;;;;-1.50;100.00;98996.75;1766079;81;20496;-74
2021/03/19 05:50:25;;;;;;;;;;;;;;;-1.43;100.00;98996.81;1768748;81;20133;-74
2021/03/19 05:52:52;;;;;;;;;;;;;;;-1.40;100.00;99005.64;1763496;80;20538;-74
2021/03/19 05:55:22;;;;;;;;;;;;;;;-1.28;100.00;99004.13;1787452;80;21371;-75
2021/03/19 05:57:53;;;;;;;;;;;;;;;-1.19;100.00;99001.67;1787522;80;20204;-75
2021/03/19 06:00:22;;;;;;;;;;;;;;;-1.04;100.00;99008.16;1784778;80;20491;-74
2021/03/19 06:02:51;;;;;;;;;;;;;;;-0.84;100.00;99004.84;1787434;80;20514;-74
2021/03/19 06:05:25;;;;;;;;;;;;;;;-0.75;100.00;99005.81;1787480;80;20244;-75
2021/03/19 06:08:01;;;;;;;;;;;;;;;-0.71;100.00;99012.34;1787377;80;21215;-73
2021/03/19 06:10:34;;;;;;;;;;;;;;;-0.76;100.00;99011.27;1787339;80;20612;-74
2021/03/19 06:13:11;;;;;;;;;;;;;;;-0.60;100.00;99016.75;1787492;80;20506;-75
2021/03/19 06:15:44;;;;;;;;;;;;;;;-0.58;100.00;99016.05;1787357;80;20161;-75
2021/03/19 06:18:34;;;;;;;;;;;;;;;-0.41;100.00;99025.27;1756920;80;20149;-75
2021/03/19 06:21:07;;;;;;;;;;;;;;;-0.24;100.00;99023.12;1707514;84;20640;-75
2021/03/19 06:23:35;;;;;;;;;;;;;;;-0.01;100.00;99026.23;1683872;84;20212;-76
2021/03/19 06:26:22;;;;;;;;;;;;;;;0.02;100.00;99025.02;1707397;84;20554;-74
2021/03/19 06:28:54;;;;;;;;;;;;;;;0.09;100.00;99032.45;1707059;84;20512;-74
2021/03/19 06:31:31;;;;;;;;;;;;;;;0.37;100.00;99034.98;1706160;82;20277;-74
2021/03/19 06:34:06;;;;;;;;;;;;;;;0.39;100.00;99038.72;1707109;84;22302;-76
2021/03/19 06:37:00;;;;;;;;;;;;;;;0.45;100.00;99030.52;1707300;84;20250;-74
2021/03/19 06:39:34;;;;;;;;;;;;;;;0.34;100.00;99035.87;1707276;82;20522;-75
2021/03/19 06:42:23;;;;;;;;;;;;;;;0.28;100.00;99038.00;1707327;84;20280;-74
2021/03/19 06:45:02;;;;;;;;;;;;;;;0.52;100.00;99036.62;1707353;84;20277;-75
2021/03/19 06:47:46;;;;;;;;;;;;;;;0.68;100.00;99040.18;1854987;77;20253;-75
2021/03/19 06:50:24;;;;;;;;;;;;;;;0.69;100.00;99042.34;1822376;78;20562;-74
2021/03/19 06:53:15;;;;;;;;;;;;;;;0.49;100.00;99042.29;1820061;78;22298;-73
2021/03/19 06:55:54;;;;;;;;;;;;;;;0.57;100.00;99046.08;1812110;78;20563;-73
2021/03/19 06:58:45;;;;;;;;;;;;;;;0.33;100.00;99046.13;1820798;78;20148;-74
2021/03/19 07:01:33;;;;;;;;;;;;;;;0.18;100.00;99045.78;1820560;78;20301;-75
2021/03/19 07:04:18;;;;;;;;;;;;;;;0.25;100.00;99048.97;1820518;78;20593;-75
2021/03/19 07:07:16;;;;;;;;;;;;;;;0.09;100.00;99048.28;1821344;78;22300;-74
2021/03/19 07:10:06;;;;;;;;;;;;;;;0.02;100.00;99050.59;1821237;78;20148;-75
2021/03/19 07:13:05;;;;;;;;;;;;;;;0.04;100.00;99046.75;1821703;78;20506;-74
2021/03/19 07:15:58;;;;;;;;;;;;;;;0.33;100.00;99048.77;1821188;78;20216;-74
2021/03/19 07:18:49;;;;;;;;;;;;;;;0.51;100.00;99047.67;1821206;78;20235;-73
2021/03/19 07:22:11;;;;;;;;;;;;;;;0.27;100.00;99055.67;1715942;82;21385;-74
2021/03/19 07:25:09;;;;;;;;;;;;;;;0.50;100.00;99063.73;1744814;82;20300;-74
2021/03/19 07:28:11;;;;;;;;;;;;;;;0.39;100.00;99062.48;1773542;81;20251;-74
2021/03/19 07:31:15;;;;;;;;;;;;;;;0.54;100.00;99066.27;1747846;82;20229;-75
2021/03/19 07:34:39;;;;;;;;;;;;;;;0.66;100.00;99066.49;1653152;86;20348;-74
2021/03/19 07:38:02;;;;;;;;;;;;;;;;;;;;;
2021/03/19 07:51:31;;;;;;;;;;;;;;;1.29;100.00;99066.91;1762453;80;20650;-74
2021/03/19 07:54:43;;;;;;;;;;;;;;;1.17;100.00;99071.19;1683064;84;20314;-74
2021/03/19 07:57:48;;;;;;;;;;;;;;;1.14;100.00;99071.61;1667763;83;21221;-75
2021/03/19 08:00:40;;;;;;;;;;;;;;;1.12;100.00;99067.83;1711056;82;20173;-74
2021/03/19 08:03:37;;;;;;;;;;;;;;;1.13;100.00;99064.67;1856978;75;20264;-73
2021/03/19 08:06:30;;;;;;;;;;;;;;;1.29;100.00;99066.91;1805892;79;20304;-75
2021/03/19 08:09:28;;;;;;;;;;;;;;;1.61;100.00;99063.89;1782962;80;22136;-74
2021/03/19 08:12:00;;;;;;;;;;;;;;;1.16;100.00;99067.73;1782561;80;20314;-74
2021/03/19 08:14:34;;;;;;;;;;;;;;;1.37;100.00;99067.20;1781647;80;20513;-75
2021/03/19 08:17:23;;;;;;;;;;;;;;;1.47;100.00;99063.61;1764044;80;20167;-74
2021/03/19 08:20:18;;;;;;;;;;;;;;;1.34;100.00;99062.33;1764322;80;20231;-74
2021/03/19 08:23:21;;;;;;;;;;;;;;;1.32;100.00;99064.36;1819118;78;20256;-74
2021/03/19 08:25:52;;;;;;;;;;;;;;;1.12;100.00;99064.39;1798372;78;20243;-74
2021/03/19 08:32:17;;;;;;;;;;;;;;;1.11;100.00;99064.09;1753760;78;20983;-74
2021/03/19 08:35:23;;;;;;;;;;;;;;;1.66;100.00;99075.19;1805922;79;20168;-75
2021/03/19 08:38:18;;;;;;;;;;;;;;;1.79;100.00;99074.33;1787678;79;20142;-74
2021/03/19 08:41:02;;;;;;;;;;;;;;;1.65;100.00;99074.38;1798250;79;20204;-75
2021/03/19 08:43:55;;;;;;;;;;;;;;;1.77;100.00;99063.97;1789025;79;21200;-76
2021/03/19 08:46:49;;;;;;;;;;;;;;;2.09;100.00;99073.33;1806511;79;20186;-75
2021/03/19 08:49:45;;;;;;;;;;;;;;;2.35;100.00;99071.05;1800128;77;20271;-76
2021/03/19 08:52:37;;;;;;;;;;;;;;;2.71;100.00;99070.42;1801582;79;20380;-74
2021/03/19 08:55:21;;;;;;;;;;;;;;;2.83;100.00;99066.57;1800026;77;20244;-75
2021/03/19 08:57:54;;;;;;;;;;;;;;;3.13;99.14;99067.25;1796392;79;22280;-73
2021/03/19 09:00:27;;;;;;;;;;;;;;;3.24;100.00;99071.86;1799901;79;20318;-74
2021/03/19 09:03:00;;;;;;;;;;;;;;;3.17;95.26;99067.12;1801559;79;20134;-74
2021/03/19 09:05:32;;;;;;;;;;;;;;;3.42;92.62;99071.08;1805545;79;20244;-74
2021/03/19 09:08:23;;;;;;;;;;;;;;;3.64;89.93;99068.81;1802097;79;20238;-75
2021/03/19 09:10:56;;;;;;;;;;;;;;;3.74;96.56;99065.13;1803352;77;22069;-75
2021/03/19 09:13:25;;;;;;;;;;;;;;;3.82;89.19;99079.95;1798028;79;20220;-73
2021/03/19 09:15:58;;;;;;;;;;;;;;;3.89;81.23;99079.36;1793507;79;20224;-75
2021/03/19 09:18:42;;;;;;;;;;;;;;;3.60;83.79;99072.44;1784053;79;20236;-74
2021/03/19 09:21:40;;;;;;;;;;;;;;;3.86;81.22;99069.19;1791663;77;20235;-73
2021/03/19 09:24:22;;;;;;;;;;;;;;;3.90;81.61;99075.69;1803757;77;21207;-75
2021/03/19 09:27:02;;;;;;;;;;;;;;;3.62;73.29;99081.49;1788467;79;20230;-74
2021/03/19 09:29:35;;;;;;;;;;;;;;;3.84;76.23;99084.53;1815395;77;20243;-74
2021/03/19 09:32:27;;;;;;;;;;;;;;;4.22;72.19;99084.81;1812713;77;20294;-74
2021/03/19 09:35:04;;;;;;;;;;;;;;;4.57;75.48;99082.30;1816096;77;20297;-74
2021/03/19 09:37:40;;;;;;;;;;;;;;;4.62;68.34;99084.28;1807333;77;20216;-74
2021/03/19 09:40:16;;;;;;;;;;;;;;;4.43;69.82;99090.15;1816085;77;20607;-73
2021/03/19 09:42:58;;;;;;;;;;;;;;;4.24;67.10;99084.88;1828519;77;20214;-74
2021/03/19 09:45:35;;;;;;;;;;;;;;;4.69;65.23;99086.33;1804064;78;20105;-72
2021/03/19 09:48:18;;;;;;;;;;;;;;;4.21;68.18;99079.19;1794311;78;21418;-75
2021/03/19 09:51:43;;;;;;;;;;;;;;;3.96;69.89;99088.06;1806382;75;20219;-74
2021/03/19 09:54:33;;;;;;;;;;;;;;;4.39;67.90;99091.66;1772011;80;20134;-74
2021/03/19 09:57:23;;;;;;;;;;;;;;;4.81;64.32;99088.50;1773214;80;21211;-73
2021/03/19 10:00:04;;;;;;;;;;;;;;;5.12;68.01;99085.25;1773973;80;20515;-74
2021/03/19 10:02:34;;;;;;;;;;;;;;;5.30;63.78;99077.17;1774217;80;20257;-73
2021/03/19 10:05:21;;;;;;;;;;;;;;;4.96;62.63;99085.94;1748942;81;20163;-74
2021/03/19 10:07:54;;;;;;;;;;;;;;;5.32;63.96;99080.42;1760248;80;20172;-75
2021/03/19 10:10:37;;;;;;;;;;;;;;;5.11;64.85;99083.64;1770024;80;20894;-74
2021/03/19 10:13:17;;;;;;;;;;;;;;;5.24;64.13;99074.13;1768136;80;20690;-73
2021/03/19 10:15:48;;;;;;;;;;;;;;;5.60;62.01;99078.91;1768860;79;20858;-74
2021/03/19 10:18:46;;;;;;;;;;;;;;;5.15;61.37;99084.28;1746733;80;20280;-73
2021/03/19 10:21:16;;;;;;;;;;;;;;;5.66;63.43;99075.33;1738517;80;20215;-74
2021/03/19 10:23:58;;;;;;;;;;;;;;;6.34;59.76;99085.78;1745997;80;22096;-74
2021/03/19 10:26:34;;;;;;;;;;;;;;;6.03;57.46;99079.56;1724960;83;20270;-74
2021/03/19 10:29:16;;;;;;;;;;;;;;;5.44;56.24;99080.93;1772894;80;20807;-75
2021/03/19 10:31:52;;;;;;;;;;;;;;;6.28;59.26;99080.08;1757814;81;20216;-74
2021/03/19 10:34:24;;;;;;;;;;;;;;;5.99;56.70;99078.70;1753019;80;20137;-75
2021/03/19 10:37:02;;;;;;;;;;;;;;;5.89;58.33;99081.13;1738248;81;21829;-75
2021/03/19 10:39:36;;;;;;;;;;;;;;;6.03;58.15;99073.73;1758583;81;20141;-75
2021/03/19 10:56:20;;;;;;;;;;;;;;;4.33;60.93;99074.73;1766693;77;20224;-72
2021/03/19 10:58:54;;;;;;;;;;;;;;;4.22;58.63;99069.68;1713850;83;20196;-75
2021/03/19 11:01:49;;;;;;;;;;;;;;;4.36;61.80;99070.33;1803625;76;20754;-75
2021/03/19 11:04:56;;;;;;;;;;;;;;;4.44;61.17;99078.50;1786353;78;20576;-76
2021/03/19 11:07:31;;;;;;;;;;;;;;;4.48;59.99;99080.48;1619459;87;22186;-74
2021/03/19 11:10:26;;;;;;;;;;;;;;;4.41;58.81;99074.94;1826634;77;20188;-74
2021/03/19 11:13:51;;;;;;;;;;;;;;;4.69;62.56;99075.69;1798632;78;20507;-74
2021/03/19 11:17:22;;;;;;;;;;;;;;;4.32;67.73;99073.13;1764950;80;20186;-74
2021/03/19 11:20:01;;;;;;;;;;;;;;;3.94;71.67;99068.88;1751882;81;20163;-73
2021/03/19 11:22:49;;;;;;;;;;;;;;;3.57;75.59;99065.42;1847049;77;20225;-74
2021/03/19 11:25:48;;;;;;;;;;;;;;;3.14;77.04;99067.05;1784193;77;20844;-73
2021/03/19 11:28:34;;;;;;;;;;;;;;;3.09;78.76;99069.55;1799578;77;21144;-74
2021/03/19 11:32:12;;;;;;;;;;;;;;;;;;;;;
2021/03/19 11:35:08;;;;;;;;;;;;;;;2.92;76.75;99070.59;1789198;77;20197;-74
2021/03/19 11:51:41;;;;;;;;;;;;;;;;;;;;;
2021/03/19 12:15:31;;;;;;;;;;;;;;;3.29;71.30;99073.34;1708150;80;20522;-74
2021/03/19 12:21:44;;;;;;;;;;;;;;;3.38;73.35;99072.05;1581258;88;20245;-74
2021/03/19 12:25:41;;;;;;;;;;;;;;;;;;;;;
2021/03/19 12:52:21;;;;;;;;;;;;;;;3.55;62.65;99078.09;1884193;75;20191;-74
2021/03/19 12:56:10;;;;;;;;;;;;;;;3.53;63.65;99073.02;1616777;87;20182;-74
2021/03/19 13:26:56;;;;;;;;;;;;;;;3.16;62.10;99082.23;1800569;77;20306;-73
2021/03/19 13:59:05;;;;;;;;;;;;;;;;;;;;;
2021/03/19 14:02:29;;;;;;;;;;;;;;;;;;;;;
2021/03/19 15:27:43;;;;;;;;;;;;;;;1.35;100.00;99115.02;1770198;77;20598;-74
2021/03/19 15:30:18;;;;;;;;;;;;;;;1.29;100.00;99120.59;1841182;76;20197;-75
2021/03/19 15:33:54;;;;;;;;;;;;;;;1.30;100.00;99129.37;1822638;77;20237;-76
2021/03/19 15:36:55;;;;;;;;;;;;;;;1.23;100.00;99129.36;1748858;81;20944;-75
2021/03/19 16:00:51;;;;;;;;;;;;;;;0.96;100.00;99160.24;1834827;77;20598;-75
2021/03/19 16:04:04;;;;;;;;;;;;;;;0.94;100.00;99156.17;1832094;75;20306;-74
2021/03/19 16:06:59;;;;;;;;;;;;;;;0.90;100.00;99161.03;1831671;77;20305;-75
2021/03/19 16:09:45;;;;;;;;;;;;;;;0.88;100.00;99158.28;1832635;77;22304;-76
2021/03/19 16:12:17;;;;;;;;;;;;;;;0.85;100.00;99169.55;1797728;79;20429;-74
2021/03/19 16:15:16;;;;;;;;;;;;;;;0.84;100.00;99171.09;1718532;82;20207;-74
2021/03/19 16:57:21;;;;;;;;;;;;;;;0.41;100.00;99183.23;1764715;79;20307;-73
2021/03/19 17:03:23;;;;;;;;;;;;;;;0.37;100.00;99189.43;1762056;81;20283;-73
2021/03/19 17:05:56;;;;;;;;;;;;;;;0.37;100.00;99192.07;1762601;80;20168;-72
2021/03/19 17:08:31;;;;;;;;;;;;;;;0.36;100.00;99190.42;1764654;81;20295;-73
2021/03/19 17:11:03;;;;;;;;;;;;;;;0.34;100.00;99186.34;1763404;81;20307;-73
2021/03/19 17:13:47;;;;;;;;;;;;;;;0.32;100.00;99189.20;1763884;81;20200;-75
2021/03/19 17:16:43;;;;;;;;;;;;;;;0.27;100.00;99195.58;1759637;81;21489;-73
2021/03/19 17:19:16;;;;;;;;;;;;;;;0.23;100.00;99198.80;1765568;81;20343;-74
2021/03/19 17:22:12;;;;;;;;;;;;;;;0.21;100.00;99187.91;1754788;80;20296;-74
2021/03/19 17:27:40;;;;;;;;;;;;;;;0.14;100.00;99197.62;1747978;81;20566;-74
2021/03/19 17:30:23;;;;;;;;;;;;;;;0.11;100.00;99198.02;1764268;81;20260;-74
2021/03/19 17:33:21;;;;;;;;;;;;;;;0.14;100.00;99194.17;1779806;79;20245;-72
2021/03/19 17:35:57;;;;;;;;;;;;;;;0.08;100.00;99195.77;1768264;81;20533;-73
2021/03/19 17:38:31;;;;;;;;;;;;;;;0.06;100.00;99191.19;1768187;81;21426;-73
2021/03/19 17:41:02;;;;;;;;;;;;;;;0.04;100.00;99193.20;1767662;81;20140;-74
2021/03/19 17:43:50;;;;;;;;;;;;;;;0.02;100.00;99193.09;1756438;80;20220;-74
2021/03/19 17:46:33;;;;;;;;;;;;;;;0.01;100.00;99192.79;1767775;81;20623;-74
2021/03/19 17:49:08;;;;;;;;;;;;;;;0.02;100.00;99199.17;1680225;84;20237;-75
2021/03/19 17:52:18;;;;;;;;;;;;;;;;;;;;;
2021/03/19 17:55:27;;;;;;;;;;;;;;;0.01;100.00;99199.39;1654612;86;20593;-74
2021/03/19 17:58:17;;;;;;;;;;;;;;;0.04;100.00;99202.44;1852401;77;20335;-72
2021/03/19 18:00:57;;;;;;;;;;;;;;;-0.02;100.00;99195.31;1814993;78;20204;-73
2021/03/19 18:03:29;;;;;;;;;;;;;;;-0.02;100.00;99200.59;1819184;78;21209;-73
2021/03/19 18:06:06;;;;;;;;;;;;;;;-0.03;100.00;99195.80;1808048;78;20168;-74
2021/03/19 18:08:44;;;;;;;;;;;;;;;-0.05;100.00;99199.16;1820370;78;20196;-74
2021/03/19 18:11:19;;;;;;;;;;;;;;;-0.07;100.00;99203.00;1819764;78;20215;-74
2021/03/19 18:13:53;;;;;;;;;;;;;;;-0.11;100.00;99204.38;1819334;78;20172;-74
2021/03/19 18:17:15;;;;;;;;;;;;;;;;;;;;;
2021/03/19 18:20:30;;;;;;;;;;;;;;;-0.11;100.00;99197.78;1677775;85;20262;-75
2021/03/19 18:23:15;;;;;;;;;;;;;;;-0.12;100.00;99206.21;1679925;85;20608;-74
2021/03/19 18:25:58;;;;;;;;;;;;;;;-0.15;100.00;99202.62;1679411;85;20249;-74
2021/03/19 18:29:23;;;;;;;;;;;;;;;-0.18;100.00;99199.05;1825967;75;20240;-75
2021/03/19 18:43:46;;;;;;;;;;;;;;;-0.34;100.00;99202.81;1813913;78;20298;-74
2021/03/19 18:46:20;;;;;;;;;;;;;;;-0.39;100.00;99205.69;1789745;79;20158;-75
2021/03/19 18:49:25;;;;;;;;;;;;;;;-0.45;100.00;99209.41;1789550;80;21225;-74
2021/03/19 19:03:28;;;;;;;;;;;;;;;;;;;;;
2021/03/19 19:06:58;;;;;;;;;;;;;;;;;;;;;
2021/03/19 19:10:08;;;;;;;;;;;;;;;-0.54;100.00;99216.31;1718472;83;20590;-75
2021/03/19 19:14:21;;;;;;;;;;;;;;;-0.50;100.00;99211.80;1890665;75;20194;-74
2021/03/19 19:17:21;;;;;;;;;;;;;;;;;;;;;
2021/03/19 19:41:25;;;;;;;;;;;;;;;-0.55;100.00;99230.52;1775078;78;20179;-74
2021/03/19 19:44:13;;;;;;;;;;;;;;;-0.59;100.00;99232.70;1752953;81;20141;-74
2021/03/19 19:47:06;;;;;;;;;;;;;;;-0.59;100.00;99241.12;1761800;80;22208;-75
2021/03/19 19:49:41;;;;;;;;;;;;;;;-0.61;100.00;99238.69;1769438;80;20171;-75
2021/03/19 19:56:50;;;;;;;;;;;;;;;-0.63;100.00;99243.84;1727177;83;20183;-74